sensor_id;sensor_type;location;lat;lon;timestamp;P1;durP1;ratioP1;P2;durP2;ratioP2
75012;SDS011;63567;49.956;20.130;2022-11-20T00:02:18;38.57;;;13.83;;
75012;SDS011;63567;49.956;20.130;2022-11-20T00:04:43;31.07;;;12.00;;
75012;SDS011;63567;49.956;20.130;2022-11-20T00:07:08;32.27;;;11.83;;
75012;SDS011;63567;49.956;20.130;2022-11-20T00:09:33;29.60;;;12.47;;
75012;SDS011;63567;49.956;20.130;2022-11-20T00:11:59;22.10;;;10.17;;
75012;SDS011;63567;49.956;20.130;2022-11-20T00:14:24;28.07;;;11.33;;
75012;SDS011;63567;49.956;20.130;2022-11-20T00:16:49;29.90;;;13.10;;
75012;SDS011;63567;49.956;20.130;2022-11-20T00:19:14;33.73;;;14.57;;
75012;SDS011;63567;49.956;20.130;2022-11-20T00:21:40;35.97;;;14.43;;
75012;SDS011;63567;49.956;20.130;2022-11-20T00:24:05;35.50;;;14.73;;
75012;SDS011;63567;49.956;20.130;2022-11-20T00:26:33;34.67;;;14.85;;
75012;SDS011;63567;49.956;20.130;2022-11-20T00:28:59;38.87;;;15.93;;
75012;SDS011;63567;49.956;20.130;2022-11-20T00:31:26;37.30;;;15.15;;
75012;SDS011;63567;49.956;20.130;2022-11-20T00:33:52;36.90;;;14.35;;
75012;SDS011;63567;49.956;20.130;2022-11-20T00:36:22;35.55;;;12.73;;
75012;SDS011;63567;49.956;20.130;2022-11-20T00:38:55;34.17;;;13.55;;
75012;SDS011;63567;49.956;20.130;2022-11-20T00:41:23;37.97;;;14.85;;
75012;SDS011;63567;49.956;20.130;2022-11-20T00:43:49;38.83;;;15.57;;
75012;SDS011;63567;49.956;20.130;2022-11-20T00:46:17;33.67;;;12.95;;
75012;SDS011;63567;49.956;20.130;2022-11-20T00:48:44;34.67;;;14.45;;
75012;SDS011;63567;49.956;20.130;2022-11-20T00:51:11;31.77;;;13.02;;
75012;SDS011;63567;49.956;20.130;2022-11-20T00:53:37;34.35;;;13.32;;
75012;SDS011;63567;49.956;20.130;2022-11-20T00:56:04;29.67;;;12.18;;
75012;SDS011;63567;49.956;20.130;2022-11-20T00:58:35;35.00;;;13.13;;
75012;SDS011;63567;49.956;20.130;2022-11-20T01:01:06;27.10;;;11.55;;
75012;SDS011;63567;49.956;20.130;2022-11-20T01:03:37;27.08;;;12.05;;
75012;SDS011;63567;49.956;20.130;2022-11-20T01:06:12;28.17;;;11.43;;
75012;SDS011;63567;49.956;20.130;2022-11-20T01:08:57;30.30;;;12.75;;
75012;SDS011;63567;49.956;20.130;2022-11-20T01:11:26;28.65;;;12.40;;
75012;SDS011;63567;49.956;20.130;2022-11-20T01:13:53;32.13;;;13.48;;
75012;SDS011;63567;49.956;20.130;2022-11-20T01:16:20;32.42;;;14.07;;
75012;SDS011;63567;49.956;20.130;2022-11-20T01:18:48;40.92;;;15.10;;
75012;SDS011;63567;49.956;20.130;2022-11-20T01:23:42;53.10;;;19.95;;
75012;SDS011;63567;49.956;20.130;2022-11-20T01:26:10;37.92;;;16.63;;
75012;SDS011;63567;49.956;20.130;2022-11-20T01:28:38;39.50;;;16.17;;
75012;SDS011;63567;49.956;20.130;2022-11-20T01:31:15;38.92;;;15.60;;
75012;SDS011;63567;49.956;20.130;2022-11-20T01:33:42;43.65;;;16.63;;
75012;SDS011;63567;49.956;20.130;2022-11-20T01:36:09;42.92;;;18.20;;
75012;SDS011;63567;49.956;20.130;2022-11-20T01:38:35;47.63;;;18.73;;
75012;SDS011;63567;49.956;20.130;2022-11-20T01:41:01;46.10;;;17.38;;
75012;SDS011;63567;49.956;20.130;2022-11-20T01:43:26;44.67;;;17.20;;
75012;SDS011;63567;49.956;20.130;2022-11-20T01:48:25;40.65;;;16.38;;
75012;SDS011;63567;49.956;20.130;2022-11-20T01:53:21;38.30;;;14.82;;
75012;SDS011;63567;49.956;20.130;2022-11-20T01:55:54;37.25;;;15.63;;
75012;SDS011;63567;49.956;20.130;2022-11-20T01:58:26;51.53;;;19.00;;
75012;SDS011;63567;49.956;20.130;2022-11-20T02:00:55;49.00;;;20.65;;
75012;SDS011;63567;49.956;20.130;2022-11-20T02:03:21;52.30;;;20.45;;
75012;SDS011;63567;49.956;20.130;2022-11-20T02:05:48;50.53;;;20.65;;
75012;SDS011;63567;49.956;20.130;2022-11-20T02:10:42;46.03;;;17.88;;
75012;SDS011;63567;49.956;20.130;2022-11-20T02:13:08;45.13;;;17.93;;
75012;SDS011;63567;49.956;20.130;2022-11-20T02:15:51;44.50;;;18.73;;
75012;SDS011;63567;49.956;20.130;2022-11-20T02:18:18;49.05;;;18.33;;
75012;SDS011;63567;49.956;20.130;2022-11-20T02:20:46;41.88;;;16.98;;
75012;SDS011;63567;49.956;20.130;2022-11-20T02:23:21;41.08;;;16.30;;
75012;SDS011;63567;49.956;20.130;2022-11-20T02:25:48;45.00;;;17.65;;
75012;SDS011;63567;49.956;20.130;2022-11-20T02:28:15;44.08;;;17.25;;
75012;SDS011;63567;49.956;20.130;2022-11-20T02:30:42;39.75;;;16.75;;
75012;SDS011;63567;49.956;20.130;2022-11-20T02:33:07;44.60;;;18.03;;
75012;SDS011;63567;49.956;20.130;2022-11-20T02:37:59;45.80;;;17.63;;
75012;SDS011;63567;49.956;20.130;2022-11-20T02:40:27;47.33;;;18.58;;
75012;SDS011;63567;49.956;20.130;2022-11-20T02:42:52;38.23;;;15.63;;
75012;SDS011;63567;49.956;20.130;2022-11-20T02:45:18;39.55;;;15.98;;
75012;SDS011;63567;49.956;20.130;2022-11-20T02:47:44;39.80;;;16.80;;
75012;SDS011;63567;49.956;20.130;2022-11-20T02:50:09;45.03;;;18.00;;
75012;SDS011;63567;49.956;20.130;2022-11-20T02:52:35;43.80;;;17.92;;
75012;SDS011;63567;49.956;20.130;2022-11-20T02:55:00;46.60;;;18.70;;
75012;SDS011;63567;49.956;20.130;2022-11-20T02:57:25;43.03;;;16.90;;
75012;SDS011;63567;49.956;20.130;2022-11-20T02:59:51;40.58;;;17.27;;
75012;SDS011;63567;49.956;20.130;2022-11-20T03:02:16;40.67;;;15.87;;
75012;SDS011;63567;49.956;20.130;2022-11-20T03:04:41;42.13;;;15.70;;
75012;SDS011;63567;49.956;20.130;2022-11-20T03:07:07;40.00;;;17.50;;
75012;SDS011;63567;49.956;20.130;2022-11-20T03:09:33;40.40;;;17.20;;
75012;SDS011;63567;49.956;20.130;2022-11-20T03:11:58;39.13;;;16.47;;
75012;SDS011;63567;49.956;20.130;2022-11-20T03:14:23;39.90;;;16.30;;
75012;SDS011;63567;49.956;20.130;2022-11-20T03:16:49;47.67;;;18.10;;
75012;SDS011;63567;49.956;20.130;2022-11-20T03:19:14;41.80;;;16.97;;
75012;SDS011;63567;49.956;20.130;2022-11-20T03:21:39;40.53;;;16.13;;
75012;SDS011;63567;49.956;20.130;2022-11-20T03:24:05;38.60;;;15.38;;
75012;SDS011;63567;49.956;20.130;2022-11-20T03:26:30;40.45;;;16.63;;
75012;SDS011;63567;49.956;20.130;2022-11-20T03:28:59;37.03;;;15.60;;
75012;SDS011;63567;49.956;20.130;2022-11-20T03:31:27;44.53;;;16.58;;
75012;SDS011;63567;49.956;20.130;2022-11-20T03:33:55;38.92;;;15.25;;
75012;SDS011;63567;49.956;20.130;2022-11-20T03:36:21;42.03;;;15.20;;
75012;SDS011;63567;49.956;20.130;2022-11-20T03:38:47;41.65;;;15.93;;
75012;SDS011;63567;49.956;20.130;2022-11-20T03:41:14;37.17;;;14.93;;
75012;SDS011;63567;49.956;20.130;2022-11-20T03:43:55;36.97;;;14.80;;
75012;SDS011;63567;49.956;20.130;2022-11-20T03:46:24;37.42;;;13.77;;
75012;SDS011;63567;49.956;20.130;2022-11-20T03:48:50;36.58;;;13.93;;
75012;SDS011;63567;49.956;20.130;2022-11-20T03:51:16;40.67;;;15.47;;
75012;SDS011;63567;49.956;20.130;2022-11-20T03:53:44;35.25;;;14.18;;
75012;SDS011;63567;49.956;20.130;2022-11-20T03:56:11;35.90;;;14.20;;
75012;SDS011;63567;49.956;20.130;2022-11-20T03:58:39;38.20;;;14.60;;
75012;SDS011;63567;49.956;20.130;2022-11-20T04:01:10;36.75;;;14.20;;
75012;SDS011;63567;49.956;20.130;2022-11-20T04:03:38;34.55;;;13.23;;
75012;SDS011;63567;49.956;20.130;2022-11-20T04:06:06;33.88;;;13.30;;
75012;SDS011;63567;49.956;20.130;2022-11-20T04:08:35;32.97;;;13.90;;
75012;SDS011;63567;49.956;20.130;2022-11-20T04:11:10;33.83;;;12.65;;
75012;SDS011;63567;49.956;20.130;2022-11-20T04:13:37;29.48;;;11.90;;
75012;SDS011;63567;49.956;20.130;2022-11-20T04:16:03;31.23;;;11.77;;
75012;SDS011;63567;49.956;20.130;2022-11-20T04:18:28;33.30;;;13.02;;
75012;SDS011;63567;49.956;20.130;2022-11-20T04:20:55;25.60;;;10.47;;
75012;SDS011;63567;49.956;20.130;2022-11-20T04:23:21;31.88;;;12.27;;
75012;SDS011;63567;49.956;20.130;2022-11-20T04:25:47;30.47;;;12.93;;
75012;SDS011;63567;49.956;20.130;2022-11-20T04:28:12;27.03;;;11.33;;
75012;SDS011;63567;49.956;20.130;2022-11-20T04:30:37;29.37;;;10.43;;
75012;SDS011;63567;49.956;20.130;2022-11-20T04:33:02;31.03;;;11.53;;
75012;SDS011;63567;49.956;20.130;2022-11-20T04:35:28;26.13;;;9.73;;
75012;SDS011;63567;49.956;20.130;2022-11-20T04:37:53;29.57;;;10.93;;
75012;SDS011;63567;49.956;20.130;2022-11-20T04:40:18;29.90;;;12.87;;
75012;SDS011;63567;49.956;20.130;2022-11-20T04:42:43;35.77;;;12.37;;
75012;SDS011;63567;49.956;20.130;2022-11-20T04:45:09;29.30;;;12.93;;
75012;SDS011;63567;49.956;20.130;2022-11-20T04:47:34;32.20;;;12.40;;
75012;SDS011;63567;49.956;20.130;2022-11-20T04:49:59;35.27;;;13.83;;
75012;SDS011;63567;49.956;20.130;2022-11-20T04:52:24;35.50;;;13.47;;
75012;SDS011;63567;49.956;20.130;2022-11-20T04:54:50;35.03;;;14.33;;
75012;SDS011;63567;49.956;20.130;2022-11-20T04:57:17;39.40;;;16.13;;
75012;SDS011;63567;49.956;20.130;2022-11-20T04:59:43;40.40;;;14.80;;
75012;SDS011;63567;49.956;20.130;2022-11-20T05:02:08;38.27;;;15.00;;
75012;SDS011;63567;49.956;20.130;2022-11-20T05:04:34;39.55;;;14.93;;
75012;SDS011;63567;49.956;20.130;2022-11-20T05:07:00;36.90;;;13.17;;
75012;SDS011;63567;49.956;20.130;2022-11-20T05:09:25;38.60;;;15.73;;
75012;SDS011;63567;49.956;20.130;2022-11-20T05:11:50;46.60;;;18.53;;
75012;SDS011;63567;49.956;20.130;2022-11-20T05:14:15;53.97;;;22.20;;
75012;SDS011;63567;49.956;20.130;2022-11-20T05:16:41;55.87;;;21.50;;
75012;SDS011;63567;49.956;20.130;2022-11-20T05:19:06;65.50;;;23.05;;
75012;SDS011;63567;49.956;20.130;2022-11-20T05:21:31;66.83;;;25.67;;
75012;SDS011;63567;49.956;20.130;2022-11-20T05:23:57;61.17;;;23.40;;
75012;SDS011;63567;49.956;20.130;2022-11-20T05:26:22;57.70;;;23.60;;
75012;SDS011;63567;49.956;20.130;2022-11-20T05:28:48;55.30;;;21.05;;
75012;SDS011;63567;49.956;20.130;2022-11-20T05:31:15;64.40;;;24.25;;
75012;SDS011;63567;49.956;20.130;2022-11-20T05:33:43;60.00;;;23.92;;
75012;SDS011;63567;49.956;20.130;2022-11-20T05:36:09;62.63;;;23.38;;
75012;SDS011;63567;49.956;20.130;2022-11-20T05:38:36;59.97;;;22.10;;
75012;SDS011;63567;49.956;20.130;2022-11-20T05:41:09;56.35;;;22.67;;
75012;SDS011;63567;49.956;20.130;2022-11-20T05:43:37;53.83;;;21.85;;
75012;SDS011;63567;49.956;20.130;2022-11-20T05:46:04;55.63;;;20.05;;
75012;SDS011;63567;49.956;20.130;2022-11-20T05:48:31;54.20;;;22.85;;
75012;SDS011;63567;49.956;20.130;2022-11-20T05:50:57;55.13;;;21.65;;
75012;SDS011;63567;49.956;20.130;2022-11-20T05:53:24;50.55;;;19.27;;
75012;SDS011;63567;49.956;20.130;2022-11-20T05:55:57;50.08;;;20.70;;
75012;SDS011;63567;49.956;20.130;2022-11-20T05:58:34;46.95;;;19.75;;
75012;SDS011;63567;49.956;20.130;2022-11-20T06:01:10;47.15;;;19.30;;
75012;SDS011;63567;49.956;20.130;2022-11-20T06:03:39;49.15;;;20.30;;
75012;SDS011;63567;49.956;20.130;2022-11-20T06:06:05;55.47;;;20.77;;
75012;SDS011;63567;49.956;20.130;2022-11-20T06:08:31;63.58;;;23.80;;
75012;SDS011;63567;49.956;20.130;2022-11-20T06:10:57;56.58;;;23.20;;
75012;SDS011;63567;49.956;20.130;2022-11-20T06:13:22;57.40;;;23.43;;
75012;SDS011;63567;49.956;20.130;2022-11-20T06:15:52;54.95;;;22.50;;
75012;SDS011;63567;49.956;20.130;2022-11-20T06:18:18;60.13;;;24.02;;
75012;SDS011;63567;49.956;20.130;2022-11-20T06:20:44;60.70;;;23.88;;
75012;SDS011;63567;49.956;20.130;2022-11-20T06:23:10;58.65;;;21.58;;
75012;SDS011;63567;49.956;20.130;2022-11-20T06:25:39;97.07;;;40.90;;
75012;SDS011;63567;49.956;20.130;2022-11-20T06:28:05;160.63;;;64.80;;
75012;SDS011;63567;49.956;20.130;2022-11-20T06:30:30;57.70;;;23.17;;
75012;SDS011;63567;49.956;20.130;2022-11-20T06:32:55;54.93;;;22.83;;
75012;SDS011;63567;49.956;20.130;2022-11-20T06:35:21;58.43;;;23.43;;
75012;SDS011;63567;49.956;20.130;2022-11-20T06:37:46;56.77;;;23.37;;
75012;SDS011;63567;49.956;20.130;2022-11-20T06:40:11;64.50;;;24.03;;
75012;SDS011;63567;49.956;20.130;2022-11-20T06:42:37;60.17;;;23.17;;
75012;SDS011;63567;49.956;20.130;2022-11-20T06:45:02;59.60;;;23.37;;
75012;SDS011;63567;49.956;20.130;2022-11-20T06:47:27;61.63;;;24.08;;
75012;SDS011;63567;49.956;20.130;2022-11-20T06:49:53;55.07;;;21.50;;
75012;SDS011;63567;49.956;20.130;2022-11-20T06:52:18;53.65;;;21.55;;
75012;SDS011;63567;49.956;20.130;2022-11-20T06:54:43;50.90;;;21.37;;
75012;SDS011;63567;49.956;20.130;2022-11-20T06:57:09;50.67;;;21.13;;
75012;SDS011;63567;49.956;20.130;2022-11-20T06:59:34;54.00;;;21.37;;
75012;SDS011;63567;49.956;20.130;2022-11-20T07:01:59;54.90;;;21.47;;
75012;SDS011;63567;49.956;20.130;2022-11-20T07:04:24;57.13;;;23.20;;
75012;SDS011;63567;49.956;20.130;2022-11-20T07:06:50;56.07;;;22.37;;
75012;SDS011;63567;49.956;20.130;2022-11-20T07:09:15;57.10;;;23.50;;
75012;SDS011;63567;49.956;20.130;2022-11-20T07:11:41;54.63;;;21.88;;
75012;SDS011;63567;49.956;20.130;2022-11-20T07:14:06;61.40;;;23.57;;
75012;SDS011;63567;49.956;20.130;2022-11-20T07:16:31;56.63;;;22.47;;
75012;SDS011;63567;49.956;20.130;2022-11-20T07:18:57;56.10;;;22.97;;
75012;SDS011;63567;49.956;20.130;2022-11-20T07:21:22;57.03;;;23.47;;
75012;SDS011;63567;49.956;20.130;2022-11-20T07:23:47;61.03;;;24.87;;
75012;SDS011;63567;49.956;20.130;2022-11-20T07:26:12;68.40;;;28.93;;
75012;SDS011;63567;49.956;20.130;2022-11-20T07:28:38;66.00;;;25.63;;
75012;SDS011;63567;49.956;20.130;2022-11-20T07:31:03;52.42;;;22.73;;
75012;SDS011;63567;49.956;20.130;2022-11-20T07:33:29;58.15;;;23.35;;
75012;SDS011;63567;49.956;20.130;2022-11-20T07:35:55;61.70;;;23.00;;
75012;SDS011;63567;49.956;20.130;2022-11-20T07:38:20;65.40;;;25.83;;
75012;SDS011;63567;49.956;20.130;2022-11-20T07:40:46;63.42;;;26.40;;
75012;SDS011;63567;49.956;20.130;2022-11-20T07:43:11;61.20;;;24.63;;
75012;SDS011;63567;49.956;20.130;2022-11-20T07:45:36;57.53;;;23.90;;
75012;SDS011;63567;49.956;20.130;2022-11-20T07:48:02;58.90;;;24.23;;
75012;SDS011;63567;49.956;20.130;2022-11-20T07:50:27;58.13;;;23.63;;
75012;SDS011;63567;49.956;20.130;2022-11-20T07:52:59;59.50;;;24.67;;
75012;SDS011;63567;49.956;20.130;2022-11-20T07:55:25;57.53;;;22.88;;
75012;SDS011;63567;49.956;20.130;2022-11-20T07:57:54;57.78;;;22.95;;
75012;SDS011;63567;49.956;20.130;2022-11-20T08:00:21;47.80;;;20.80;;
75012;SDS011;63567;49.956;20.130;2022-11-20T08:02:46;49.97;;;20.88;;
75012;SDS011;63567;49.956;20.130;2022-11-20T08:05:11;53.27;;;22.83;;
75012;SDS011;63567;49.956;20.130;2022-11-20T08:07:37;48.53;;;20.77;;
75012;SDS011;63567;49.956;20.130;2022-11-20T08:10:08;49.10;;;20.23;;
75012;SDS011;63567;49.956;20.130;2022-11-20T08:12:35;44.88;;;19.35;;
75012;SDS011;63567;49.956;20.130;2022-11-20T08:15:19;44.03;;;17.23;;
75012;SDS011;63567;49.956;20.130;2022-11-20T08:17:44;41.70;;;17.97;;
75012;SDS011;63567;49.956;20.130;2022-11-20T08:20:09;46.00;;;19.03;;
75012;SDS011;63567;49.956;20.130;2022-11-20T08:22:35;45.80;;;19.02;;
75012;SDS011;63567;49.956;20.130;2022-11-20T08:25:00;47.37;;;19.87;;
75012;SDS011;63567;49.956;20.130;2022-11-20T08:27:26;55.17;;;21.00;;
75012;SDS011;63567;49.956;20.130;2022-11-20T08:29:51;60.40;;;25.93;;
75012;SDS011;63567;49.956;20.130;2022-11-20T08:32:16;64.37;;;25.47;;
75012;SDS011;63567;49.956;20.130;2022-11-20T08:34:41;60.63;;;26.83;;
75012;SDS011;63567;49.956;20.130;2022-11-20T08:37:07;59.07;;;26.87;;
75012;SDS011;63567;49.956;20.130;2022-11-20T08:39:32;58.97;;;26.33;;
75012;SDS011;63567;49.956;20.130;2022-11-20T08:41:57;56.30;;;25.10;;
75012;SDS011;63567;49.956;20.130;2022-11-20T08:44:23;60.97;;;25.83;;
75012;SDS011;63567;49.956;20.130;2022-11-20T08:46:48;64.30;;;27.65;;
75012;SDS011;63567;49.956;20.130;2022-11-20T08:49:13;69.20;;;28.97;;
75012;SDS011;63567;49.956;20.130;2022-11-20T08:51:39;69.55;;;28.95;;
75012;SDS011;63567;49.956;20.130;2022-11-20T08:54:05;71.80;;;30.52;;
75012;SDS011;63567;49.956;20.130;2022-11-20T08:56:31;73.53;;;29.70;;
75012;SDS011;63567;49.956;20.130;2022-11-20T08:58:56;69.07;;;29.30;;
75012;SDS011;63567;49.956;20.130;2022-11-20T09:01:24;69.03;;;27.08;;
75012;SDS011;63567;49.956;20.130;2022-11-20T09:03:49;62.37;;;26.90;;
75012;SDS011;63567;49.956;20.130;2022-11-20T09:06:15;59.13;;;26.13;;
75012;SDS011;63567;49.956;20.130;2022-11-20T09:08:40;58.28;;;26.17;;
75012;SDS011;63567;49.956;20.130;2022-11-20T09:11:06;56.92;;;24.13;;
75012;SDS011;63567;49.956;20.130;2022-11-20T09:13:32;59.13;;;24.83;;
75012;SDS011;63567;49.956;20.130;2022-11-20T09:16:00;56.88;;;24.02;;
75012;SDS011;63567;49.956;20.130;2022-11-20T09:18:34;56.60;;;24.27;;
75012;SDS011;63567;49.956;20.130;2022-11-20T09:21:04;60.95;;;25.25;;
75012;SDS011;63567;49.956;20.130;2022-11-20T09:23:32;53.20;;;23.58;;
75012;SDS011;63567;49.956;20.130;2022-11-20T09:26:05;47.03;;;21.02;;
75012;SDS011;63567;49.956;20.130;2022-11-20T09:28:34;56.65;;;24.98;;
75012;SDS011;63567;49.956;20.130;2022-11-20T09:30:59;59.87;;;26.83;;
75012;SDS011;63567;49.956;20.130;2022-11-20T09:33:24;59.42;;;25.58;;
75012;SDS011;63567;49.956;20.130;2022-11-20T09:35:50;57.40;;;23.75;;
75012;SDS011;63567;49.956;20.130;2022-11-20T09:38:15;49.17;;;21.87;;
75012;SDS011;63567;49.956;20.130;2022-11-20T09:40:44;51.87;;;21.83;;
75012;SDS011;63567;49.956;20.130;2022-11-20T09:48:29;51.58;;;23.05;;
75012;SDS011;63567;49.956;20.130;2022-11-20T09:56:12;39.50;;;18.38;;
75012;SDS011;63567;49.956;20.130;2022-11-20T09:58:39;36.00;;;16.08;;
75012;SDS011;63567;49.956;20.130;2022-11-20T10:01:14;37.97;;;16.00;;
75012;SDS011;63567;49.956;20.130;2022-11-20T10:03:45;38.47;;;16.85;;
75012;SDS011;63567;49.956;20.130;2022-11-20T10:06:17;44.58;;;19.33;;
75012;SDS011;63567;49.956;20.130;2022-11-20T10:09:32;61.53;;;27.55;;
75012;SDS011;63567;49.956;20.130;2022-11-20T10:11:38;59.72;;;26.27;;
75012;SDS011;63567;49.956;20.130;2022-11-20T10:17:29;49.92;;;22.60;;
75012;SDS011;63567;49.956;20.130;2022-11-20T10:25:59;52.60;;;22.55;;
75012;SDS011;63567;49.956;20.130;2022-11-20T10:28:43;48.28;;;20.70;;
75012;SDS011;63567;49.956;20.130;2022-11-20T10:31:27;42.35;;;18.80;;
75012;SDS011;63567;49.956;20.130;2022-11-20T10:33:57;55.90;;;25.15;;
75012;SDS011;63567;49.956;20.130;2022-11-20T10:36:28;53.75;;;23.15;;
75012;SDS011;63567;49.956;20.130;2022-11-20T10:39:01;41.63;;;19.30;;
75012;SDS011;63567;49.956;20.130;2022-11-20T10:41:32;40.10;;;20.38;;
75012;SDS011;63567;49.956;20.130;2022-11-20T10:44:05;45.10;;;20.52;;
75012;SDS011;63567;49.956;20.130;2022-11-20T10:46:40;45.08;;;20.23;;
75012;SDS011;63567;49.956;20.130;2022-11-20T10:49:13;45.45;;;20.27;;
75012;SDS011;63567;49.956;20.130;2022-11-20T10:51:45;37.47;;;17.02;;
75012;SDS011;63567;49.956;20.130;2022-11-20T10:54:26;44.05;;;19.33;;
75012;SDS011;63567;49.956;20.130;2022-11-20T10:57:11;44.30;;;19.23;;
75012;SDS011;63567;49.956;20.130;2022-11-20T11:02:23;36.67;;;17.20;;
75012;SDS011;63567;49.956;20.130;2022-11-20T11:04:55;92.45;;;37.17;;
75012;SDS011;63567;49.956;20.130;2022-11-20T11:07:22;113.80;;;42.00;;
75012;SDS011;63567;49.956;20.130;2022-11-20T11:09:52;87.50;;;38.05;;
75012;SDS011;63567;49.956;20.130;2022-11-20T11:12:19;81.40;;;35.22;;
75012;SDS011;63567;49.956;20.130;2022-11-20T11:14:51;82.90;;;36.60;;
75012;SDS011;63567;49.956;20.130;2022-11-20T11:17:22;80.07;;;35.72;;
75012;SDS011;63567;49.956;20.130;2022-11-20T11:19:58;82.80;;;36.08;;
75012;SDS011;63567;49.956;20.130;2022-11-20T11:22:24;77.43;;;37.15;;
75012;SDS011;63567;49.956;20.130;2022-11-20T11:24:52;88.07;;;39.55;;
75012;SDS011;63567;49.956;20.130;2022-11-20T11:27:18;90.70;;;39.75;;
75012;SDS011;63567;49.956;20.130;2022-11-20T11:29:44;95.67;;;40.70;;
75012;SDS011;63567;49.956;20.130;2022-11-20T11:32:14;99.53;;;44.05;;
75012;SDS011;63567;49.956;20.130;2022-11-20T11:34:43;100.78;;;43.83;;
75012;SDS011;63567;49.956;20.130;2022-11-20T11:37:18;101.10;;;42.58;;
75012;SDS011;63567;49.956;20.130;2022-11-20T11:39:46;90.65;;;39.75;;
75012;SDS011;63567;49.956;20.130;2022-11-20T11:42:15;93.40;;;40.83;;
75012;SDS011;63567;49.956;20.130;2022-11-20T11:44:44;89.55;;;40.88;;
75012;SDS011;63567;49.956;20.130;2022-11-20T11:50:13;93.28;;;39.75;;
75012;SDS011;63567;49.956;20.130;2022-11-20T11:58:04;88.32;;;38.55;;
75012;SDS011;63567;49.956;20.130;2022-11-20T12:00:54;85.82;;;37.00;;
75012;SDS011;63567;49.956;20.130;2022-11-20T12:03:39;82.38;;;34.92;;
75012;SDS011;63567;49.956;20.130;2022-11-20T12:08:49;73.80;;;35.25;;
75012;SDS011;63567;49.956;20.130;2022-11-20T12:14:14;85.55;;;37.60;;
75012;SDS011;63567;49.956;20.130;2022-11-20T12:16:48;93.88;;;41.00;;
75012;SDS011;63567;49.956;20.130;2022-11-20T12:19:15;99.30;;;41.25;;
75012;SDS011;63567;49.956;20.130;2022-11-20T12:29:43;81.43;;;36.53;;
75012;SDS011;63567;49.956;20.130;2022-11-20T12:47:36;66.63;;;29.20;;
75012;SDS011;63567;49.956;20.130;2022-11-20T13:01:29;64.70;;;28.90;;
75012;SDS011;63567;49.956;20.130;2022-11-20T13:04:28;63.20;;;28.77;;
75012;SDS011;63567;49.956;20.130;2022-11-20T13:07:11;66.38;;;28.80;;
75012;SDS011;63567;49.956;20.130;2022-11-20T13:09:42;70.03;;;31.88;;
75012;SDS011;63567;49.956;20.130;2022-11-20T13:12:14;65.32;;;29.88;;
75012;SDS011;63567;49.956;20.130;2022-11-20T13:17:20;63.28;;;29.15;;
75012;SDS011;63567;49.956;20.130;2022-11-20T13:19:49;136.02;;;52.42;;
75012;SDS011;63567;49.956;20.130;2022-11-20T13:22:25;127.22;;;51.72;;
75012;SDS011;63567;49.956;20.130;2022-11-20T13:24:52;126.88;;;50.22;;
75012;SDS011;63567;49.956;20.130;2022-11-20T13:27:19;123.47;;;52.42;;
75012;SDS011;63567;49.956;20.130;2022-11-20T13:30:02;115.15;;;49.22;;
75012;SDS011;63567;49.956;20.130;2022-11-20T13:32:47;121.53;;;51.60;;
75012;SDS011;63567;49.956;20.130;2022-11-20T13:35:28;104.43;;;47.90;;
75012;SDS011;63567;49.956;20.130;2022-11-20T13:40:25;108.75;;;46.92;;
75012;SDS011;63567;49.956;20.130;2022-11-20T13:45:30;105.78;;;44.83;;
75012;SDS011;63567;49.956;20.130;2022-11-20T13:47:57;95.18;;;41.50;;
75012;SDS011;63567;49.956;20.130;2022-11-20T13:51:15;84.18;;;38.05;;
75012;SDS011;63567;49.956;20.130;2022-11-20T13:53:22;79.93;;;33.75;;
75012;SDS011;63567;49.956;20.130;2022-11-20T13:56:33;92.05;;;41.35;;
75012;SDS011;63567;49.956;20.130;2022-11-20T14:01:35;112.57;;;48.75;;
75012;SDS011;63567;49.956;20.130;2022-11-20T14:04:08;91.85;;;41.05;;
75012;SDS011;63567;49.956;20.130;2022-11-20T14:06:39;84.25;;;38.95;;
75012;SDS011;63567;49.956;20.130;2022-11-20T14:09:11;93.35;;;39.25;;
75012;SDS011;63567;49.956;20.130;2022-11-20T14:11:45;82.13;;;38.25;;
75012;SDS011;63567;49.956;20.130;2022-11-20T14:16:45;78.97;;;36.15;;
75012;SDS011;63567;49.956;20.130;2022-11-20T14:21:46;94.15;;;39.92;;
75012;SDS011;63567;49.956;20.130;2022-11-20T14:24:12;95.95;;;41.55;;
75012;SDS011;63567;49.956;20.130;2022-11-20T14:26:44;90.78;;;43.13;;
75012;SDS011;63567;49.956;20.130;2022-11-20T14:31:44;82.20;;;35.80;;
75012;SDS011;63567;49.956;20.130;2022-11-20T14:34:18;112.20;;;49.33;;
75012;SDS011;63567;49.956;20.130;2022-11-20T14:36:47;103.85;;;46.05;;
75012;SDS011;63567;49.956;20.130;2022-11-20T14:39:22;89.25;;;41.10;;
75012;SDS011;63567;49.956;20.130;2022-11-20T14:41:54;91.65;;;38.72;;
75012;SDS011;63567;49.956;20.130;2022-11-20T14:44:40;78.60;;;35.25;;
75012;SDS011;63567;49.956;20.130;2022-11-20T14:47:05;86.32;;;36.75;;
75012;SDS011;63567;49.956;20.130;2022-11-20T14:49:31;91.95;;;39.03;;
75012;SDS011;63567;49.956;20.130;2022-11-20T14:52:00;82.80;;;35.28;;
75012;SDS011;63567;49.956;20.130;2022-11-20T14:54:34;90.47;;;36.88;;
75012;SDS011;63567;49.956;20.130;2022-11-20T14:57:25;87.53;;;34.22;;
75012;SDS011;63567;49.956;20.130;2022-11-20T15:00:04;77.13;;;32.65;;
75012;SDS011;63567;49.956;20.130;2022-11-20T15:02:32;89.35;;;36.33;;
75012;SDS011;63567;49.956;20.130;2022-11-20T15:04:58;77.70;;;32.50;;
75012;SDS011;63567;49.956;20.130;2022-11-20T15:07:27;77.78;;;33.35;;
75012;SDS011;63567;49.956;20.130;2022-11-20T15:10:07;76.05;;;31.33;;
75012;SDS011;63567;49.956;20.130;2022-11-20T15:12:38;71.22;;;29.55;;
75012;SDS011;63567;49.956;20.130;2022-11-20T15:15:11;78.88;;;30.52;;
75012;SDS011;63567;49.956;20.130;2022-11-20T15:17:39;81.97;;;32.97;;
75012;SDS011;63567;49.956;20.130;2022-11-20T15:20:09;79.70;;;32.50;;
75012;SDS011;63567;49.956;20.130;2022-11-20T15:22:38;79.55;;;32.95;;
75012;SDS011;63567;49.956;20.130;2022-11-20T15:25:13;73.73;;;31.40;;
75012;SDS011;63567;49.956;20.130;2022-11-20T15:27:40;77.88;;;33.40;;
75012;SDS011;63567;49.956;20.130;2022-11-20T15:30:24;81.35;;;33.63;;
75012;SDS011;63567;49.956;20.130;2022-11-20T15:32:49;84.07;;;36.45;;
75012;SDS011;63567;49.956;20.130;2022-11-20T15:35:15;85.33;;;35.50;;
75012;SDS011;63567;49.956;20.130;2022-11-20T15:37:40;84.90;;;34.35;;
75012;SDS011;63567;49.956;20.130;2022-11-20T15:40:06;83.35;;;35.38;;
75012;SDS011;63567;49.956;20.130;2022-11-20T15:42:33;74.60;;;32.40;;
75012;SDS011;63567;49.956;20.130;2022-11-20T15:44:59;86.65;;;34.88;;
75012;SDS011;63567;49.956;20.130;2022-11-20T15:47:28;91.10;;;36.33;;
75012;SDS011;63567;49.956;20.130;2022-11-20T15:49:56;78.28;;;32.20;;
75012;SDS011;63567;49.956;20.130;2022-11-20T15:52:21;77.90;;;32.67;;
75012;SDS011;63567;49.956;20.130;2022-11-20T15:54:46;69.50;;;30.40;;
75012;SDS011;63567;49.956;20.130;2022-11-20T15:57:12;72.50;;;30.43;;
75012;SDS011;63567;49.956;20.130;2022-11-20T15:59:37;81.30;;;31.83;;